createdAt,value
2023-05-06T00:00:03.020Z,0
2023-05-06T00:05:03.102Z,0
2023-05-06T00:10:03.122Z,0
2023-05-06T00:15:03.028Z,0
2023-05-06T00:20:03.014Z,0
2023-05-06T00:25:03.096Z,0
2023-05-06T00:30:03.042Z,0
2023-05-06T00:35:03.021Z,0
2023-05-06T00:40:03.105Z,0
2023-05-06T00:45:03.180Z,0
2023-05-06T00:50:03.257Z,0
2023-05-06T00:55:03.198Z,0
2023-05-06T01:00:03.002Z,0
2023-05-06T01:05:03.138Z,0
2023-05-06T01:10:01.072Z,0
2023-05-06T01:15:01.089Z,0
2023-05-06T01:20:01.089Z,0
2023-05-06T01:25:01.076Z,0
2023-05-06T01:30:01.112Z,0
2023-05-06T01:35:01.162Z,0
2023-05-06T01:40:01.056Z,0
2023-05-06T01:45:01.122Z,0
2023-05-06T01:50:01.103Z,0
2023-05-06T01:55:01.238Z,0
2023-05-06T02:00:01.213Z,0
2023-05-06T02:05:01.286Z,0
2023-05-06T02:10:01.105Z,0
2023-05-06T02:15:01.127Z,0
2023-05-06T02:20:01.146Z,0
2023-05-06T02:25:01.128Z,0
2023-05-06T02:30:01.151Z,0
2023-05-06T02:35:01.136Z,0
2023-05-06T02:40:01.139Z,0
2023-05-06T02:45:01.135Z,0
2023-05-06T02:50:01.143Z,0
2023-05-06T02:55:01.138Z,0
2023-05-06T03:00:01.224Z,0
2023-05-06T03:05:01.421Z,0
2023-05-06T03:10:01.366Z,0
2023-05-06T03:15:01.175Z,0
2023-05-06T03:20:01.134Z,0
2023-05-06T03:25:01.197Z,0
2023-05-06T03:30:01.135Z,0.23351322751322753
2023-05-06T03:35:01.183Z,0.3384761904761905
2023-05-06T03:40:01.177Z,0.3462751322751323
2023-05-06T03:45:01.255Z,0.4285185185185185
2023-05-06T03:50:01.197Z,0.39659259259259255
2023-05-06T03:55:01.206Z,0.5002010582010582
2023-05-06T04:00:01.185Z,0.5117883597883599
2023-05-06T04:05:01.208Z,0.8195343915343914
2023-05-06T04:10:01.215Z,1.0920529100529102
2023-05-06T04:15:01.231Z,1.3716084656084655
2023-05-06T04:20:01.175Z,1.6994497354497355
2023-05-06T04:25:01.257Z,2.06594708994709
2023-05-06T04:30:01.313Z,2.4401798941798942
2023-05-06T04:35:01.424Z,2.8582751322751325
2023-05-06T04:40:01.377Z,3.525291005291005
2023-05-06T04:45:01.405Z,3.9639047619047623
2023-05-06T04:50:01.432Z,4.420571428571429
2023-05-06T04:55:01.376Z,5.020338624338624
2023-05-06T05:00:01.240Z,5.814698412698413
2023-05-06T05:05:01.244Z,6.582232804232804
2023-05-06T05:10:01.351Z,7.262888888888888
2023-05-06T05:15:01.312Z,7.711671957671958
2023-05-06T05:20:01.302Z,7.920306878306879
2023-05-06T05:25:01.273Z,8.03484656084656
2023-05-06T05:30:01.260Z,8.34647619047619
2023-05-06T05:35:01.314Z,8.853312169312169
2023-05-06T05:40:01.276Z,9.446222222222222
2023-05-06T05:45:01.265Z,10.007121693121693
2023-05-06T05:50:01.326Z,10.651693121693121
2023-05-06T05:55:01.372Z,11.234148148148147
2023-05-06T06:00:01.334Z,11.998444444444445
2023-05-06T06:05:01.386Z,13.328613756613757
2023-05-06T06:10:01.366Z,14.007174603174604
2023-05-06T06:15:01.351Z,14.94973544973545
2023-05-06T06:20:01.323Z,15.998476190476191
2023-05-06T06:25:01.414Z,16.642666666666667
2023-05-06T06:30:01.405Z,16.435714285714283
2023-05-06T06:35:01.430Z,17.38848677248677
2023-05-06T06:40:01.551Z,16.898433862433862
2023-05-06T06:45:01.613Z,16.444761904761904
2023-05-06T06:50:01.543Z,17.66216931216931
2023-05-06T06:55:01.346Z,18.133227513227514
2023-05-06T07:00:01.415Z,19.810497354497354
2023-05-06T07:05:01.366Z,24.319640211640213
2023-05-06T07:10:01.531Z,21.976126984126985
2023-05-06T07:15:01.431Z,26.057809523809528
2023-05-06T07:20:01.338Z,25.519238095238094
2023-05-06T07:25:01.444Z,28.84814814814815
2023-05-06T07:30:01.387Z,33.73930158730159
2023-05-06T07:35:01.474Z,37.524550264550264
2023-05-06T07:40:01.393Z,45.46162962962963
2023-05-06T07:45:01.399Z,50.42242328042328
2023-05-06T07:50:01.557Z,53.190518518518516
2023-05-06T07:55:01.388Z,50.51707936507937
2023-05-06T08:00:01.456Z,47.826560846560845
2023-05-06T08:05:01.391Z,47.22851851851852
2023-05-06T08:10:01.459Z,49.38970370370371
2023-05-06T08:15:01.460Z,51.757185185185186
2023-05-06T08:20:01.413Z,53.91565079365079
2023-05-06T08:25:01.510Z,46.071703703703704
2023-05-06T08:30:01.464Z,38.889502645502645
2023-05-06T08:35:01.540Z,54.454253968253965
2023-05-06T08:40:01.631Z,44.65313227513228
2023-05-06T08:45:01.593Z,56.530550264550264
2023-05-06T08:50:01.598Z,49.70621164021164
2023-05-06T08:55:01.790Z,56.10241269841269
2023-05-06T09:00:01.451Z,60.857005291005294
2023-05-06T09:05:01.480Z,62.08807407407407
2023-05-06T09:10:01.597Z,66.70297354497356
2023-05-06T09:15:01.542Z,66.54562962962963
2023-05-06T09:20:01.492Z,61.28889947089947
2023-05-06T09:25:01.455Z,56.86762962962963
2023-05-06T09:30:01.677Z,54.507576719576726
2023-05-06T09:35:01.502Z,55.35648677248677
2023-05-06T09:40:01.490Z,58.122962962962966
2023-05-06T09:45:02.291Z,56.372359788359795
2023-05-06T09:50:01.480Z,69.98629629629629
2023-05-06T09:55:01.565Z,62.8953544973545
2023-05-06T10:00:01.562Z,53.26211640211641
2023-05-06T10:05:01.754Z,47.05143915343915
2023-05-06T10:10:01.552Z,53.65427513227513
2023-05-06T10:15:01.578Z,50.365735449735446
2023-05-06T10:20:01.520Z,59.396571428571434
2023-05-06T10:25:01.616Z,52.93795767195767
2023-05-06T10:30:01.633Z,47.948783068783065
2023-05-06T10:35:01.732Z,48.953661375661376
2023-05-06T10:40:02.034Z,48.7049417989418
2023-05-06T10:45:01.848Z,46.98275132275132
2023-05-06T10:50:01.778Z,44.33632804232804
2023-05-06T10:55:01.527Z,44.69984126984127
2023-05-06T11:00:02.144Z,49.06903703703704
2023-05-06T11:05:01.589Z,50.9012380952381
2023-05-06T11:10:01.625Z,53.57708994708995
2023-05-06T11:15:01.598Z,52.62930158730159
2023-05-06T11:20:01.607Z,52.74395767195767
2023-05-06T11:25:01.562Z,51.15032804232804
2023-05-06T11:30:01.594Z,49.337894179894185
2023-05-06T11:35:01.552Z,49.57553439153439
2023-05-06T11:40:01.629Z,52.09944973544973
2023-05-06T11:45:01.605Z,56.550148148148146
2023-05-06T11:50:01.611Z,60.39091005291005
2023-05-06T11:55:01.607Z,66.65673015873016
2023-05-06T12:00:01.615Z,82.6826455026455
2023-05-06T12:05:01.668Z,78.49154497354498
2023-05-06T12:10:01.644Z,75.11619047619048
2023-05-06T12:15:01.647Z,77.24857142857142
2023-05-06T12:20:01.678Z,79.02569312169312
2023-05-06T12:25:01.771Z,86.36937566137566
2023-05-06T12:30:01.765Z,82.12804232804233
2023-05-06T12:35:01.888Z,76.1019365079365
2023-05-06T12:40:01.803Z,79.3955873015873
2023-05-06T12:45:01.835Z,84.34881481481482
2023-05-06T12:50:01.635Z,84.64951322751322
2023-05-06T12:55:01.682Z,86.57904761904763
2023-05-06T13:00:01.671Z,85.41424338624338
2023-05-06T13:05:01.691Z,84.67954497354498
2023-05-06T13:10:01.694Z,81.60110052910053
2023-05-06T13:15:01.767Z,76.01295238095238
2023-05-06T13:20:02.758Z,75.05008465608466
2023-05-06T13:25:01.664Z,81.60833862433863
2023-05-06T13:30:01.754Z,78.68761904761905
2023-05-06T13:35:01.656Z,78.48986243386243
2023-05-06T13:40:01.735Z,75.5557671957672
2023-05-06T13:45:01.768Z,75.38757671957671
2023-05-06T13:50:01.769Z,70.87875132275133
2023-05-06T13:55:01.724Z,71.79318518518518
2023-05-06T14:00:01.809Z,67.68668783068783
2023-05-06T14:05:01.935Z,61.97390476190476
2023-05-06T14:10:02.180Z,63.20501587301587
2023-05-06T14:15:01.922Z,68.96098412698413
2023-05-06T14:20:01.793Z,66.7956507936508
2023-05-06T14:25:01.809Z,63.226412698412695
2023-05-06T14:30:01.739Z,64.55081481481481
2023-05-06T14:35:01.761Z,67.83350264550265
2023-05-06T14:40:01.827Z,66.28961904761904
2023-05-06T14:45:01.764Z,60.7631746031746
2023-05-06T14:50:01.815Z,56.172222222222224
2023-05-06T14:55:02.151Z,55.05974603174602
2023-05-06T15:00:01.983Z,60.00605291005291
2023-05-06T15:05:04.028Z,59.3489417989418
2023-05-06T15:10:01.793Z,58.31624338624339
2023-05-06T15:15:01.845Z,54.56895238095238
2023-05-06T15:20:01.914Z,49.316761904761904
2023-05-06T15:25:01.770Z,45.33645502645503
2023-05-06T15:30:01.814Z,43.050158730158735
2023-05-06T15:35:01.999Z,44.975555555555566
2023-05-06T15:40:01.993Z,44.64170370370371
2023-05-06T15:45:01.906Z,47.62639153439154
2023-05-06T15:50:02.039Z,44.76382010582011
2023-05-06T15:55:01.945Z,48.4397037037037
2023-05-06T16:00:02.055Z,46.5575873015873
2023-05-06T16:05:01.978Z,42.1678835978836
2023-05-06T16:10:01.846Z,38.15106878306879
2023-05-06T16:15:01.933Z,29.190507936507938
2023-05-06T16:20:01.878Z,24.814444444444447
2023-05-06T16:25:01.925Z,24.968095238095238
2023-05-06T16:30:01.830Z,28.075788359788362
2023-05-06T16:35:01.892Z,26.39946031746032
2023-05-06T16:40:01.908Z,26.872666666666667
2023-05-06T16:45:02.146Z,21.283343915343917
2023-05-06T16:50:01.895Z,20.1665291005291
2023-05-06T16:55:01.849Z,17.665809523809525
2023-05-06T17:00:02.042Z,15.317153439153438
2023-05-06T17:05:01.990Z,13.369968253968253
2023-05-06T17:10:01.942Z,12.950465608465608
2023-05-06T17:15:01.910Z,14.254349206349207
2023-05-06T17:20:01.863Z,12.479883597883596
2023-05-06T17:25:01.964Z,8.623978835978836
2023-05-06T17:30:01.882Z,6.405693121693121
2023-05-06T17:35:01.875Z,5.866783068783069
2023-05-06T17:40:02.062Z,5.793269841269842
2023-05-06T17:45:01.884Z,3.9439047619047622
2023-05-06T17:50:01.957Z,3.0302751322751322
2023-05-06T17:55:15.303Z,2.594984126984127
2023-05-06T18:00:01.928Z,2.097777777777778
2023-05-06T18:05:01.890Z,1.5945396825396825
2023-05-06T18:10:01.954Z,1.3176825396825398
2023-05-06T18:15:01.956Z,1.02805291005291
2023-05-06T18:20:02.042Z,0.7678835978835978
2023-05-06T18:25:02.023Z,0.44723809523809527
2023-05-06T18:30:02.093Z,0.31631746031746033
2023-05-06T18:35:02.246Z,0.3896402116402116
2023-05-06T18:40:02.479Z,0.2952698412698413
2023-05-06T18:45:02.133Z,0.29255026455026456
2023-05-06T18:50:02.102Z,0.10312169312169314
2023-05-06T18:55:02.130Z,0
2023-05-06T19:00:02.101Z,0
2023-05-06T19:05:02.160Z,0
2023-05-06T19:10:02.139Z,0
2023-05-06T19:15:02.230Z,0
2023-05-06T19:20:02.256Z,0
2023-05-06T19:25:02.125Z,0
2023-05-06T19:30:02.213Z,0
2023-05-06T19:35:02.123Z,0
2023-05-06T19:40:02.108Z,0
2023-05-06T19:45:02.003Z,0
2023-05-06T19:50:02.062Z,0
2023-05-06T19:55:02.026Z,0
2023-05-06T20:00:02.145Z,0
2023-05-06T20:05:02.031Z,0
2023-05-06T20:10:02.088Z,0
2023-05-06T20:15:02.074Z,0
2023-05-06T20:20:04.264Z,0
2023-05-06T20:25:02.038Z,0
2023-05-06T20:30:02.079Z,0
2023-05-06T20:35:02.096Z,0
2023-05-06T20:40:02.151Z,0
2023-05-06T20:45:02.176Z,0
2023-05-06T20:50:02.050Z,0
2023-05-06T20:55:02.145Z,0
2023-05-06T21:00:02.144Z,0
2023-05-06T21:05:02.040Z,0
2023-05-06T21:10:02.096Z,0
2023-05-06T21:15:02.182Z,0
2023-05-06T21:20:03.603Z,0
2023-05-06T21:25:02.125Z,0
2023-05-06T21:30:02.083Z,0
2023-05-06T21:35:02.112Z,0
2023-05-06T21:40:02.177Z,0
2023-05-06T21:45:02.102Z,0
2023-05-06T21:50:02.107Z,0
2023-05-06T21:55:02.093Z,0
2023-05-06T22:00:02.160Z,0
2023-05-06T22:05:02.126Z,0
2023-05-06T22:10:02.507Z,0
2023-05-06T22:15:02.172Z,0
2023-05-06T22:20:02.154Z,0
2023-05-06T22:25:02.188Z,0
2023-05-06T22:30:02.140Z,0
2023-05-06T22:35:02.168Z,0
2023-05-06T22:40:02.262Z,0
2023-05-06T22:45:02.269Z,0
2023-05-06T22:50:02.286Z,0
2023-05-06T22:55:02.319Z,0
2023-05-06T23:00:02.273Z,0
2023-05-06T23:05:02.296Z,0
2023-05-06T23:10:02.365Z,0
2023-05-06T23:15:02.413Z,0
2023-05-06T23:20:02.403Z,0
2023-05-06T23:25:02.189Z,0
2023-05-06T23:30:02.198Z,0
2023-05-06T23:35:02.197Z,0
2023-05-06T23:40:02.214Z,0
2023-05-06T23:45:02.272Z,0
2023-05-06T23:50:02.251Z,0
2023-05-06T23:55:02.206Z,0
